createdAt,value
2023-05-11T00:00:33.576Z,45.57
2023-05-11T00:03:00.028Z,44.53
2023-05-11T00:05:26.565Z,49.60
2023-05-11T00:07:52.896Z,63.77
2023-05-11T00:10:19.549Z,51.10
2023-05-11T00:12:46.053Z,54.53
2023-05-11T00:15:12.401Z,51.10
2023-05-11T00:17:38.754Z,47.13
2023-05-11T00:20:06.165Z,51.60
2023-05-11T00:22:32.491Z,56.40
2023-05-11T00:24:58.804Z,55.07
2023-05-11T00:27:25.500Z,60.07
2023-05-11T00:29:51.998Z,53.30
2023-05-11T00:32:18.338Z,64.07
2023-05-11T00:34:44.706Z,54.20
2023-05-11T00:37:16.252Z,57.50
2023-05-11T00:39:42.686Z,58.27
2023-05-11T00:42:10.705Z,63.30
2023-05-11T00:44:37.115Z,54.70
2023-05-11T00:47:03.831Z,57.57
2023-05-11T00:49:31.085Z,64.40
2023-05-11T00:51:57.800Z,53.47
2023-05-11T00:54:24.668Z,45.83
2023-05-11T00:56:51.662Z,48.07
2023-05-11T00:59:18.564Z,47.17
2023-05-11T01:01:45.024Z,55.63
2023-05-11T01:04:12.667Z,64.57
2023-05-11T01:06:51.532Z,59.80
2023-05-11T01:09:27.404Z,65.77
2023-05-11T01:12:00.453Z,58.83
2023-05-11T01:14:38.688Z,57.30
2023-05-11T01:17:20.529Z,50.63
2023-05-11T01:19:51.463Z,63.53
2023-05-11T01:22:37.864Z,65.70
2023-05-11T01:25:29.903Z,72.53
2023-05-11T01:28:23.068Z,60.57
2023-05-11T01:31:01.704Z,74.53
2023-05-11T01:33:33.612Z,71.03
2023-05-11T01:36:05.590Z,73.13
2023-05-11T01:38:35.706Z,63.13
2023-05-11T01:41:09.788Z,75.70
2023-05-11T01:43:37.471Z,86.57
2023-05-11T01:46:09.158Z,130.17
2023-05-11T01:48:40.542Z,124.27
2023-05-11T01:51:08.858Z,121.43
2023-05-11T01:53:37.667Z,99.97
2023-05-11T01:56:06.227Z,106.30
2023-05-11T01:58:35.943Z,110.57
2023-05-11T02:01:04.059Z,79.40
2023-05-11T02:03:36.738Z,88.80
2023-05-11T02:06:05.739Z,78.03
2023-05-11T02:08:33.795Z,75.87
2023-05-11T02:11:02.498Z,78.87
2023-05-11T02:13:30.348Z,77.80
2023-05-11T02:15:58.557Z,88.47
2023-05-11T02:18:25.151Z,96.00
2023-05-11T02:21:00.056Z,77.93
2023-05-11T02:23:27.742Z,80.80
2023-05-11T02:25:55.164Z,78.10
2023-05-11T02:28:21.664Z,90.93
2023-05-11T02:30:53.105Z,98.00
2023-05-11T02:33:26.292Z,98.70
2023-05-11T02:35:55.554Z,105.97
2023-05-11T02:38:30.834Z,113.73
2023-05-11T02:41:00.490Z,113.13
2023-05-11T02:43:33.578Z,119.70
2023-05-11T02:46:06.878Z,110.97
2023-05-11T02:48:41.157Z,114.43
2023-05-11T02:51:11.057Z,105.90
2023-05-11T02:53:45.329Z,107.27
2023-05-11T02:56:13.154Z,105.73
2023-05-11T02:58:39.562Z,109.37
2023-05-11T03:01:17.153Z,108.90
2023-05-11T03:03:43.809Z,113.93
2023-05-11T03:06:10.220Z,112.50
2023-05-11T03:08:37.438Z,104.70
2023-05-11T03:11:04.924Z,108.80
2023-05-11T03:13:32.457Z,100.17
2023-05-11T03:16:02.378Z,106.90
2023-05-11T03:18:32.189Z,103.77
2023-05-11T03:21:01.360Z,104.47
2023-05-11T03:23:29.250Z,112.17
2023-05-11T03:25:57.337Z,107.63
2023-05-11T03:28:26.658Z,102.60
2023-05-11T03:31:00.429Z,92.43
2023-05-11T03:33:26.854Z,100.17
2023-05-11T03:35:54.197Z,98.30
2023-05-11T03:38:24.371Z,91.70
2023-05-11T03:40:53.469Z,99.67
2023-05-11T03:43:21.718Z,81.47
2023-05-11T03:45:53.887Z,91.57
2023-05-11T03:48:23.713Z,80.97
2023-05-11T03:50:51.776Z,91.03
2023-05-11T03:53:19.048Z,93.43
2023-05-11T03:55:45.471Z,86.43
2023-05-11T03:58:11.915Z,87.90
2023-05-11T04:00:39.974Z,93.30
2023-05-11T04:03:07.787Z,96.03
2023-05-11T04:05:34.404Z,98.63
2023-05-11T04:08:04.631Z,87.90
2023-05-11T04:10:30.966Z,80.33
2023-05-11T04:12:57.489Z,87.80
2023-05-11T04:15:23.932Z,85.37
2023-05-11T04:17:50.331Z,89.50
2023-05-11T04:20:17.039Z,91.27
2023-05-11T04:22:44.214Z,80.17
2023-05-11T04:25:10.719Z,76.43
2023-05-11T04:27:37.098Z,78.57
2023-05-11T04:30:04.212Z,81.03
2023-05-11T04:32:31.465Z,84.03
2023-05-11T04:34:57.985Z,76.37
2023-05-11T04:37:26.421Z,79.23
2023-05-11T04:39:53.126Z,80.17
2023-05-11T04:42:20.697Z,85.53
2023-05-11T04:44:54.259Z,82.67
2023-05-11T04:47:21.191Z,72.93
2023-05-11T04:49:48.332Z,75.77
2023-05-11T04:52:15.311Z,71.20
2023-05-11T04:54:44.633Z,64.50
2023-05-11T04:57:11.008Z,64.03
2023-05-11T04:59:37.495Z,66.40
2023-05-11T05:02:04.117Z,70.90
2023-05-11T05:04:30.855Z,62.53
2023-05-11T05:06:57.241Z,71.43
2023-05-11T05:09:23.579Z,54.03
2023-05-11T05:11:50.094Z,59.37
2023-05-11T05:14:16.450Z,59.43
2023-05-11T05:16:43.034Z,57.53
2023-05-11T05:19:12.798Z,65.30
2023-05-11T05:21:40.535Z,54.03
2023-05-11T05:24:10.932Z,55.57
2023-05-11T05:26:37.582Z,58.90
2023-05-11T05:29:05.358Z,59.27
2023-05-11T05:31:31.782Z,69.23
2023-05-11T05:33:58.423Z,67.83
2023-05-11T05:36:24.835Z,79.63
2023-05-11T05:38:51.745Z,79.20
2023-05-11T05:41:18.682Z,68.73
2023-05-11T05:43:45.486Z,70.47
2023-05-11T05:46:12.499Z,59.73
2023-05-11T05:48:38.908Z,67.70
2023-05-11T05:51:05.372Z,67.67
2023-05-11T05:53:31.769Z,63.23
2023-05-11T05:55:58.186Z,61.23
2023-05-11T05:58:24.597Z,63.57
2023-05-11T06:00:51.050Z,60.63
2023-05-11T06:03:17.519Z,48.10
2023-05-11T06:05:44.167Z,45.07
2023-05-11T06:08:11.637Z,45.00
2023-05-11T06:10:39.269Z,39.30
2023-05-11T06:13:08.054Z,37.63
2023-05-11T06:15:35.215Z,37.80
2023-05-11T06:18:08.611Z,42.00
2023-05-11T06:20:35.542Z,40.37
2023-05-11T06:23:03.871Z,37.40
2023-05-11T06:25:30.457Z,42.20
2023-05-11T06:27:56.995Z,43.33
2023-05-11T06:30:23.397Z,41.47
2023-05-11T06:32:52.361Z,34.77
2023-05-11T06:35:20.715Z,33.67
2023-05-11T06:37:47.101Z,41.33
2023-05-11T06:40:16.329Z,34.40
2023-05-11T06:42:43.147Z,38.30
2023-05-11T06:45:11.099Z,35.83
2023-05-11T06:47:41.556Z,35.77
2023-05-11T06:50:08.604Z,35.37
2023-05-11T06:52:37.370Z,33.27
2023-05-11T06:55:04.445Z,36.70
2023-05-11T06:57:30.778Z,34.90
2023-05-11T06:59:57.526Z,28.50
2023-05-11T07:02:24.193Z,31.93
2023-05-11T07:04:50.836Z,32.27
2023-05-11T07:07:17.277Z,32.40
2023-05-11T07:09:43.674Z,23.40
2023-05-11T07:12:10.126Z,29.70
2023-05-11T07:14:36.573Z,34.23
2023-05-11T07:17:03.654Z,26.47
2023-05-11T07:19:30.066Z,22.57
2023-05-11T07:21:56.424Z,24.97
2023-05-11T07:24:22.834Z,24.03
2023-05-11T07:26:50.655Z,27.43
2023-05-11T07:29:17.017Z,32.90
2023-05-11T07:31:43.962Z,29.10
2023-05-11T07:34:10.343Z,32.77
2023-05-11T07:36:36.761Z,35.90
2023-05-11T07:39:03.234Z,33.23
2023-05-11T07:41:29.654Z,28.10
2023-05-11T07:43:56.182Z,27.80
2023-05-11T07:46:22.650Z,23.90
2023-05-11T07:48:51.675Z,18.33
2023-05-11T07:51:24.094Z,22.03
2023-05-11T07:53:50.490Z,33.03
2023-05-11T07:56:17.132Z,21.33
2023-05-11T07:58:43.592Z,23.73
2023-05-11T08:01:09.974Z,22.90
2023-05-11T08:03:36.965Z,25.43
2023-05-11T08:06:03.795Z,24.77
2023-05-11T08:08:30.565Z,24.63
2023-05-11T08:10:56.920Z,29.13
2023-05-11T08:13:23.288Z,25.87
2023-05-11T08:15:49.736Z,34.60
2023-05-11T08:18:16.384Z,27.40
2023-05-11T08:20:42.729Z,27.90
2023-05-11T08:23:10.694Z,25.40
2023-05-11T08:25:37.035Z,21.73
2023-05-11T08:28:03.499Z,18.00
2023-05-11T08:30:29.930Z,29.73
2023-05-11T08:32:59.076Z,34.83
2023-05-11T08:35:25.987Z,31.33
2023-05-11T08:37:52.340Z,24.20
2023-05-11T08:40:21.499Z,32.60
2023-05-11T08:42:49.849Z,31.83
2023-05-11T08:45:17.731Z,35.47
2023-05-11T08:47:45.311Z,40.40
2023-05-11T08:50:11.988Z,26.03
2023-05-11T08:52:38.448Z,23.27
2023-05-11T08:55:05.258Z,24.50
2023-05-11T08:57:34.089Z,26.30
2023-05-11T09:00:02.309Z,26.27
2023-05-11T09:02:29.311Z,19.60
2023-05-11T09:04:56.007Z,16.83
2023-05-11T09:07:24.383Z,17.97
2023-05-11T09:09:50.717Z,21.17
2023-05-11T09:12:17.134Z,16.40
2023-05-11T09:14:43.693Z,21.67
2023-05-11T09:17:10.137Z,21.57
2023-05-11T09:19:36.626Z,20.37
2023-05-11T09:22:05.265Z,27.53
2023-05-11T09:24:32.264Z,23.87
2023-05-11T09:27:07.277Z,21.27
2023-05-11T09:29:33.613Z,22.27
2023-05-11T09:31:59.979Z,31.43
2023-05-11T09:34:26.622Z,31.00
2023-05-11T09:36:55.064Z,33.63
2023-05-11T09:42:15.324Z,19.37
2023-05-11T09:44:43.274Z,23.10
2023-05-11T09:47:19.186Z,16.50
2023-05-11T09:49:47.523Z,15.67
2023-05-11T09:52:18.499Z,14.23
2023-05-11T09:54:50.820Z,14.87
2023-05-11T09:57:30.576Z,17.43
2023-05-11T09:59:59.207Z,14.40
2023-05-11T10:02:27.459Z,17.27
2023-05-11T10:04:55.803Z,16.10
2023-05-11T10:07:26.367Z,11.27
2023-05-11T10:10:01.637Z,11.63
2023-05-11T10:12:28.895Z,12.60
2023-05-11T10:15:08.097Z,13.60
2023-05-11T10:17:35.619Z,13.33
2023-05-11T10:20:04.102Z,13.70
2023-05-11T10:22:31.268Z,11.87
2023-05-11T10:24:58.595Z,12.00
2023-05-11T10:27:25.982Z,11.20
2023-05-11T10:29:52.588Z,19.37
2023-05-11T10:32:20.245Z,15.17
2023-05-11T10:34:47.985Z,13.40
2023-05-11T10:37:15.569Z,12.27
2023-05-11T10:39:43.992Z,11.63
2023-05-11T10:42:37.147Z,15.60
2023-05-11T10:45:21.923Z,14.93
2023-05-11T10:48:06.058Z,13.57
2023-05-11T10:50:52.067Z,14.10
2023-05-11T10:53:48.942Z,17.27
2023-05-11T10:56:37.064Z,17.73
2023-05-11T10:59:43.113Z,14.93
2023-05-11T11:02:10.157Z,14.27
2023-05-11T11:04:51.479Z,18.10
2023-05-11T11:07:19.418Z,21.27
2023-05-11T11:09:56.407Z,18.40
2023-05-11T11:12:29.860Z,17.37
2023-05-11T11:15:06.063Z,17.30
2023-05-11T11:17:34.999Z,30.07
2023-05-11T11:20:03.931Z,27.47
2023-05-11T11:22:38.136Z,28.37
2023-05-11T11:25:09.052Z,27.73
2023-05-11T11:27:41.286Z,29.00
2023-05-11T11:30:15.600Z,25.20
2023-05-11T11:32:42.976Z,21.83
2023-05-11T11:35:42.337Z,26.00
2023-05-11T11:38:14.996Z,18.20
2023-05-11T11:40:53.037Z,22.30
2023-05-11T11:43:24.972Z,30.30
2023-05-11T11:45:51.302Z,23.13
2023-05-11T11:48:30.905Z,28.50
2023-05-11T11:51:02.595Z,25.10
2023-05-11T11:53:38.213Z,37.00
2023-05-11T11:56:07.279Z,39.80
2023-05-11T11:58:46.139Z,36.70
2023-05-11T12:01:15.284Z,31.90
2023-05-11T12:03:44.872Z,32.40
2023-05-11T12:06:12.010Z,26.97
2023-05-11T12:08:40.434Z,30.50
2023-05-11T12:11:07.689Z,32.20
2023-05-11T12:13:35.651Z,28.83
2023-05-11T12:16:09.308Z,27.97
2023-05-11T12:18:36.388Z,29.37
2023-05-11T12:21:02.958Z,26.10
2023-05-11T12:23:29.824Z,23.30
2023-05-11T12:26:06.264Z,20.57
2023-05-11T12:28:33.550Z,16.57
2023-05-11T12:31:00.775Z,16.00
2023-05-11T12:33:27.715Z,17.80
2023-05-11T12:35:56.468Z,20.20
2023-05-11T12:38:22.870Z,16.47
2023-05-11T12:40:51.364Z,17.70
2023-05-11T12:43:21.478Z,24.70
2023-05-11T12:45:48.593Z,15.53
2023-05-11T12:48:15.872Z,22.30
2023-05-11T12:50:44.352Z,18.53
2023-05-11T12:53:19.035Z,21.03
2023-05-11T12:55:57.573Z,21.63
2023-05-11T12:58:23.909Z,14.27
2023-05-11T13:00:54.625Z,17.37
2023-05-11T13:03:25.197Z,16.37
2023-05-11T13:05:52.372Z,20.00
2023-05-11T13:08:19.773Z,21.20
2023-05-11T13:10:47.873Z,20.53
2023-05-11T13:13:26.926Z,23.87
2023-05-11T13:15:53.446Z,18.33
2023-05-11T13:18:19.910Z,19.47
2023-05-11T13:20:46.428Z,23.70
2023-05-11T13:23:14.943Z,24.10
2023-05-11T13:25:53.700Z,18.07
2023-05-11T13:28:22.430Z,28.00
2023-05-11T13:30:51.060Z,19.93
2023-05-11T13:33:18.257Z,24.23
2023-05-11T13:35:45.505Z,21.90
2023-05-11T13:38:12.622Z,21.53
2023-05-11T13:40:39.423Z,11.53
2023-05-11T13:43:06.412Z,8.80
2023-05-11T13:45:32.755Z,7.47
2023-05-11T13:47:59.104Z,6.87
2023-05-11T13:50:26.181Z,5.87
2023-05-11T13:52:53.444Z,6.07
2023-05-11T13:55:20.907Z,5.60
2023-05-11T13:57:47.663Z,7.30
2023-05-11T14:00:15.025Z,8.97
2023-05-11T14:02:41.523Z,7.80
2023-05-11T14:05:08.619Z,7.37
2023-05-11T14:07:46.434Z,7.47
2023-05-11T14:10:15.209Z,8.73
2023-05-11T14:12:41.567Z,8.90
2023-05-11T14:15:08.685Z,7.77
2023-05-11T14:17:35.307Z,7.47
2023-05-11T14:20:01.801Z,7.63
2023-05-11T14:22:29.045Z,7.47
2023-05-11T14:24:56.071Z,6.47
2023-05-11T14:27:23.529Z,6.50
2023-05-11T14:29:52.042Z,7.27
2023-05-11T14:32:21.740Z,7.13
2023-05-11T14:34:48.631Z,7.57
2023-05-11T14:37:15.023Z,7.97
2023-05-11T14:39:41.510Z,6.97
2023-05-11T14:42:08.235Z,7.27
2023-05-11T14:44:34.664Z,7.00
2023-05-11T14:47:01.255Z,7.90
2023-05-11T14:49:27.674Z,7.70
2023-05-11T14:51:54.098Z,7.07
2023-05-11T14:54:20.439Z,10.20
2023-05-11T14:56:51.249Z,6.63
2023-05-11T14:59:17.607Z,7.50
2023-05-11T15:01:43.986Z,6.40
2023-05-11T15:04:10.500Z,6.37
2023-05-11T15:06:37.042Z,6.13
2023-05-11T15:09:04.179Z,6.33
2023-05-11T15:11:30.595Z,7.23
2023-05-11T15:13:56.899Z,7.37
2023-05-11T15:16:23.364Z,6.40
2023-05-11T15:18:49.839Z,6.87
2023-05-11T15:21:16.300Z,7.83
2023-05-11T15:23:42.621Z,8.20
2023-05-11T15:26:09.090Z,7.23
2023-05-11T15:28:35.497Z,7.77
2023-05-11T15:31:01.893Z,7.27
2023-05-11T15:33:28.294Z,6.80
2023-05-11T15:35:54.675Z,6.97
2023-05-11T15:38:21.360Z,8.33
2023-05-11T15:40:47.712Z,7.40
2023-05-11T15:43:14.574Z,7.97
2023-05-11T15:45:41.187Z,6.63
2023-05-11T15:48:07.740Z,8.40
2023-05-11T15:50:34.155Z,6.80
2023-05-11T15:53:01.020Z,7.10
2023-05-11T15:55:27.457Z,5.77
2023-05-11T15:57:53.820Z,5.20
2023-05-11T16:00:20.432Z,5.30
2023-05-11T16:02:48.789Z,5.20
2023-05-11T16:05:15.338Z,4.73
2023-05-11T16:07:41.677Z,4.73
2023-05-11T16:10:08.309Z,5.87
2023-05-11T16:12:34.663Z,5.20
2023-05-11T16:15:01.236Z,4.70
2023-05-11T16:17:27.641Z,5.07
2023-05-11T16:19:54.006Z,5.93
2023-05-11T16:22:23.615Z,5.50
2023-05-11T16:24:50.546Z,4.87
2023-05-11T16:27:17.057Z,4.43
2023-05-11T16:29:43.397Z,3.80
2023-05-11T16:32:09.753Z,3.70
2023-05-11T16:34:36.129Z,3.00
2023-05-11T16:37:02.555Z,3.70
2023-05-11T16:39:28.928Z,3.77
2023-05-11T16:41:55.339Z,3.43
2023-05-11T16:44:21.695Z,3.80
2023-05-11T16:46:49.037Z,4.23
2023-05-11T16:49:15.619Z,4.13
2023-05-11T16:51:43.218Z,4.30
2023-05-11T16:54:10.338Z,4.03
2023-05-11T16:56:36.746Z,4.13
2023-05-11T16:59:03.080Z,4.57
2023-05-11T17:01:29.458Z,4.00
2023-05-11T17:03:55.884Z,5.30
2023-05-11T17:06:23.827Z,5.17
2023-05-11T17:08:50.484Z,5.43
2023-05-11T17:11:17.061Z,5.37
2023-05-11T17:13:43.422Z,6.30
2023-05-11T17:16:09.794Z,5.97
2023-05-11T17:18:36.282Z,5.73
2023-05-11T17:21:02.667Z,6.13
2023-05-11T17:23:29.168Z,6.67
2023-05-11T17:25:55.558Z,5.73
2023-05-11T17:28:22.114Z,6.10
2023-05-11T17:30:56.926Z,5.80
2023-05-11T17:33:23.531Z,6.23
2023-05-11T17:35:50.626Z,6.83
2023-05-11T17:38:16.949Z,6.73
2023-05-11T17:40:44.240Z,5.27
2023-05-11T17:43:10.550Z,3.97
2023-05-11T17:45:36.975Z,3.90
2023-05-11T17:48:03.559Z,4.73
2023-05-11T17:50:29.989Z,4.33
2023-05-11T17:52:56.376Z,4.60
2023-05-11T17:55:22.704Z,5.20
2023-05-11T17:57:51.386Z,4.67
2023-05-11T18:00:18.218Z,5.20
2023-05-11T18:02:47.505Z,4.97
2023-05-11T18:05:15.689Z,5.20
2023-05-11T18:07:42.193Z,4.73
2023-05-11T18:10:10.768Z,4.53
2023-05-11T18:12:37.111Z,4.87
2023-05-11T18:15:03.913Z,4.20
2023-05-11T18:17:30.448Z,4.17
2023-05-11T18:19:56.897Z,4.37
2023-05-11T18:22:23.276Z,4.70
2023-05-11T18:24:49.685Z,4.40
2023-05-11T18:27:16.077Z,5.23
2023-05-11T18:29:43.213Z,5.47
2023-05-11T18:32:09.571Z,4.50
2023-05-11T18:34:36.006Z,4.53
2023-05-11T18:37:02.742Z,4.20
2023-05-11T18:39:29.251Z,4.63
2023-05-11T18:41:55.718Z,3.87
2023-05-11T18:44:22.662Z,4.13
2023-05-11T18:46:49.091Z,4.50
2023-05-11T18:49:15.460Z,3.83
2023-05-11T18:51:41.860Z,4.17
2023-05-11T18:54:08.578Z,3.93
2023-05-11T18:56:34.897Z,4.10
2023-05-11T18:59:01.288Z,4.00
2023-05-11T19:01:39.790Z,3.83
2023-05-11T19:04:13.938Z,5.80
2023-05-11T19:06:40.271Z,3.77
2023-05-11T19:09:06.858Z,3.73
2023-05-11T19:11:33.484Z,4.33
2023-05-11T19:14:00.108Z,4.87
2023-05-11T19:16:28.027Z,4.77
2023-05-11T19:18:56.702Z,5.10
2023-05-11T19:21:23.083Z,5.27
2023-05-11T19:23:49.486Z,6.30
2023-05-11T19:26:15.809Z,5.27
2023-05-11T19:28:42.194Z,7.23
2023-05-11T19:31:08.795Z,5.97
2023-05-11T19:33:35.216Z,5.47
2023-05-11T19:36:01.724Z,7.73
2023-05-11T19:38:28.351Z,6.07
2023-05-11T19:40:54.729Z,7.10
2023-05-11T19:43:22.716Z,7.13
2023-05-11T19:45:49.348Z,7.43
2023-05-11T19:48:16.236Z,8.50
2023-05-11T19:50:42.956Z,8.60
2023-05-11T19:53:09.349Z,7.33
2023-05-11T19:55:35.782Z,7.87
2023-05-11T19:58:02.561Z,8.10
2023-05-11T20:00:28.990Z,8.17
2023-05-11T20:02:56.956Z,8.33
2023-05-11T20:05:23.713Z,8.43
2023-05-11T20:07:50.115Z,8.43
2023-05-11T20:10:16.743Z,8.93
2023-05-11T20:12:43.339Z,9.47
2023-05-11T20:15:10.558Z,10.20
2023-05-11T20:17:37.111Z,9.77
2023-05-11T20:20:03.822Z,12.00
2023-05-11T20:22:31.344Z,11.27
2023-05-11T20:24:57.726Z,11.60
2023-05-11T20:27:24.374Z,12.93
2023-05-11T20:29:50.907Z,10.90
2023-05-11T20:32:18.309Z,12.73
2023-05-11T20:34:44.656Z,10.60
2023-05-11T20:37:11.062Z,11.60
2023-05-11T20:39:38.732Z,12.17
2023-05-11T20:42:05.237Z,11.90
2023-05-11T20:44:31.603Z,12.27
2023-05-11T20:46:57.963Z,15.87
2023-05-11T20:49:37.607Z,12.23
2023-05-11T20:52:05.267Z,12.43
2023-05-11T20:54:33.644Z,12.83
2023-05-11T20:57:01.305Z,12.73
2023-05-11T21:01:59.231Z,12.93
2023-05-11T21:04:25.744Z,13.47
2023-05-11T21:06:55.354Z,12.63
2023-05-11T21:09:21.735Z,13.43
2023-05-11T21:11:48.791Z,19.90
2023-05-11T21:14:15.564Z,16.40
2023-05-11T21:16:42.144Z,15.20
2023-05-11T21:19:08.588Z,15.27
2023-05-11T21:21:35.621Z,16.50
2023-05-11T21:24:01.973Z,19.57
2023-05-11T21:26:28.322Z,18.87
2023-05-11T21:28:54.691Z,18.93
2023-05-11T21:31:21.830Z,17.87
2023-05-11T21:33:50.531Z,20.97
2023-05-11T21:36:16.907Z,19.80
2023-05-11T21:38:43.275Z,20.47
2023-05-11T21:41:09.790Z,20.57
2023-05-11T21:43:36.880Z,27.13
2023-05-11T21:46:03.264Z,22.00
2023-05-11T21:48:29.822Z,20.70
2023-05-11T21:50:56.491Z,21.53
2023-05-11T21:53:23.764Z,24.53
2023-05-11T21:55:50.577Z,25.93
2023-05-11T21:58:17.149Z,22.67
2023-05-11T22:00:44.061Z,21.83
2023-05-11T22:03:10.546Z,22.40
2023-05-11T22:05:37.035Z,24.47
2023-05-11T22:08:14.083Z,32.57
2023-05-11T22:10:41.606Z,20.93
2023-05-11T22:13:08.020Z,21.47
2023-05-11T22:15:34.383Z,20.80
2023-05-11T22:18:00.947Z,19.33
2023-05-11T22:20:27.397Z,22.87
2023-05-11T22:22:53.708Z,21.07
2023-05-11T22:25:20.248Z,21.73
2023-05-11T22:27:46.681Z,19.77
2023-05-11T22:30:13.139Z,19.80
2023-05-11T22:32:39.486Z,24.97
2023-05-11T22:35:07.301Z,24.87
2023-05-11T22:37:33.883Z,19.90
2023-05-11T22:40:00.225Z,21.77
2023-05-11T22:42:27.055Z,21.87
2023-05-11T22:44:53.492Z,18.87
2023-05-11T22:47:19.829Z,20.97
2023-05-11T22:49:46.173Z,15.70
2023-05-11T22:52:13.082Z,17.13
2023-05-11T22:54:39.459Z,14.30
2023-05-11T22:57:06.312Z,15.73
2023-05-11T22:59:34.496Z,15.07
2023-05-11T23:02:03.117Z,10.10
2023-05-11T23:04:31.103Z,10.23
2023-05-11T23:06:58.554Z,11.43
2023-05-11T23:09:25.212Z,9.13
2023-05-11T23:11:51.576Z,9.33
2023-05-11T23:14:18.180Z,9.30
2023-05-11T23:16:44.544Z,8.00
2023-05-11T23:19:11.115Z,7.53
2023-05-11T23:21:37.438Z,7.57
2023-05-11T23:24:04.786Z,7.00
2023-05-11T23:26:31.105Z,9.07
2023-05-11T23:28:57.441Z,8.67
2023-05-11T23:31:23.786Z,11.30
2023-05-11T23:33:50.134Z,11.70
2023-05-11T23:36:16.957Z,11.63
2023-05-11T23:38:46.157Z,14.37
2023-05-11T23:41:12.551Z,11.20
2023-05-11T23:43:38.886Z,13.07
2023-05-11T23:46:05.264Z,11.23
2023-05-11T23:48:31.598Z,11.63
2023-05-11T23:50:57.956Z,11.10
2023-05-11T23:53:24.297Z,10.50
2023-05-11T23:55:50.624Z,16.30
2023-05-11T23:58:17.001Z,14.13
